sensor_id;sensor_type;location;lat;lon;timestamp;P1;durP1;ratioP1;P2;durP2;ratioP2
60016;SDS011;45869;52.698;6.210;2022-11-06T00:00:25;10.88;;;6.65;;
60016;SDS011;45869;52.698;6.210;2022-11-06T00:02:51;12.13;;;6.63;;
60016;SDS011;45869;52.698;6.210;2022-11-06T00:05:17;11.32;;;6.88;;
60016;SDS011;45869;52.698;6.210;2022-11-06T00:08:02;11.55;;;7.13;;
60016;SDS011;45869;52.698;6.210;2022-11-06T00:10:28;10.77;;;6.53;;
60016;SDS011;45869;52.698;6.210;2022-11-06T00:12:56;10.70;;;6.53;;
60016;SDS011;45869;52.698;6.210;2022-11-06T00:15:22;11.13;;;6.78;;
60016;SDS011;45869;52.698;6.210;2022-11-06T00:17:48;13.80;;;6.80;;
60016;SDS011;45869;52.698;6.210;2022-11-06T00:20:15;10.52;;;7.30;;
60016;SDS011;45869;52.698;6.210;2022-11-06T00:22:50;10.65;;;6.57;;
60016;SDS011;45869;52.698;6.210;2022-11-06T00:25:16;10.23;;;6.60;;
60016;SDS011;45869;52.698;6.210;2022-11-06T00:27:42;10.23;;;6.38;;
60016;SDS011;45869;52.698;6.210;2022-11-06T00:30:09;10.80;;;6.32;;
60016;SDS011;45869;52.698;6.210;2022-11-06T00:32:36;13.20;;;6.88;;
60016;SDS011;45869;52.698;6.210;2022-11-06T00:35:02;11.00;;;6.40;;
60016;SDS011;45869;52.698;6.210;2022-11-06T00:37:28;11.02;;;6.68;;
60016;SDS011;45869;52.698;6.210;2022-11-06T00:39:54;9.57;;;6.30;;
60016;SDS011;45869;52.698;6.210;2022-11-06T00:42:20;9.32;;;6.30;;
60016;SDS011;45869;52.698;6.210;2022-11-06T00:44:49;10.30;;;6.18;;
60016;SDS011;45869;52.698;6.210;2022-11-06T00:47:15;10.30;;;6.07;;
60016;SDS011;45869;52.698;6.210;2022-11-06T00:49:41;11.52;;;6.07;;
60016;SDS011;45869;52.698;6.210;2022-11-06T00:52:07;11.27;;;6.53;;
60016;SDS011;45869;52.698;6.210;2022-11-06T00:54:33;10.73;;;6.43;;
60016;SDS011;45869;52.698;6.210;2022-11-06T00:56:59;9.02;;;6.30;;
60016;SDS011;45869;52.698;6.210;2022-11-06T00:59:24;10.02;;;6.45;;
60016;SDS011;45869;52.698;6.210;2022-11-06T01:01:50;9.20;;;6.00;;
60016;SDS011;45869;52.698;6.210;2022-11-06T01:04:18;11.35;;;6.80;;
60016;SDS011;45869;52.698;6.210;2022-11-06T01:06:48;10.30;;;6.90;;
60016;SDS011;45869;52.698;6.210;2022-11-06T01:09:15;13.43;;;7.15;;
60016;SDS011;45869;52.698;6.210;2022-11-06T01:11:45;13.43;;;6.57;;
60016;SDS011;45869;52.698;6.210;2022-11-06T01:14:12;12.63;;;7.65;;
60016;SDS011;45869;52.698;6.210;2022-11-06T01:16:38;8.73;;;6.45;;
60016;SDS011;45869;52.698;6.210;2022-11-06T01:19:04;10.68;;;6.70;;
60016;SDS011;45869;52.698;6.210;2022-11-06T01:21:32;11.02;;;6.63;;
60016;SDS011;45869;52.698;6.210;2022-11-06T01:24:00;10.70;;;6.68;;
60016;SDS011;45869;52.698;6.210;2022-11-06T01:26:26;12.25;;;6.72;;
60016;SDS011;45869;52.698;6.210;2022-11-06T01:28:53;11.50;;;6.78;;
60016;SDS011;45869;52.698;6.210;2022-11-06T01:31:20;10.88;;;6.97;;
60016;SDS011;45869;52.698;6.210;2022-11-06T01:33:46;15.13;;;6.72;;
60016;SDS011;45869;52.698;6.210;2022-11-06T01:36:14;10.60;;;7.03;;
60016;SDS011;45869;52.698;6.210;2022-11-06T01:38:44;16.08;;;7.28;;
60016;SDS011;45869;52.698;6.210;2022-11-06T01:41:14;10.88;;;6.57;;
60016;SDS011;45869;52.698;6.210;2022-11-06T01:46:12;12.20;;;7.15;;
60016;SDS011;45869;52.698;6.210;2022-11-06T01:48:40;12.57;;;6.90;;
60016;SDS011;45869;52.698;6.210;2022-11-06T01:51:07;11.15;;;7.18;;
60016;SDS011;45869;52.698;6.210;2022-11-06T01:53:36;10.82;;;6.85;;
60016;SDS011;45869;52.698;6.210;2022-11-06T01:56:03;12.38;;;7.47;;
60016;SDS011;45869;52.698;6.210;2022-11-06T01:58:30;12.10;;;7.03;;
60016;SDS011;45869;52.698;6.210;2022-11-06T02:00:57;12.32;;;7.07;;
60016;SDS011;45869;52.698;6.210;2022-11-06T02:03:23;12.85;;;7.35;;
60016;SDS011;45869;52.698;6.210;2022-11-06T02:05:49;10.57;;;7.18;;
60016;SDS011;45869;52.698;6.210;2022-11-06T02:08:17;12.75;;;7.47;;
60016;SDS011;45869;52.698;6.210;2022-11-06T02:10:44;9.82;;;6.95;;
60016;SDS011;45869;52.698;6.210;2022-11-06T02:13:19;11.57;;;6.90;;
60016;SDS011;45869;52.698;6.210;2022-11-06T02:28:59;12.55;;;7.15;;
60016;SDS011;45869;52.698;6.210;2022-11-06T02:31:27;15.53;;;7.43;;
60016;SDS011;45869;52.698;6.210;2022-11-06T02:33:56;11.05;;;7.18;;
60016;SDS011;45869;52.698;6.210;2022-11-06T02:36:26;13.05;;;6.60;;
60016;SDS011;45869;52.698;6.210;2022-11-06T02:38:55;10.30;;;7.18;;
60016;SDS011;45869;52.698;6.210;2022-11-06T02:41:23;10.15;;;6.75;;
60016;SDS011;45869;52.698;6.210;2022-11-06T02:43:52;14.18;;;7.20;;
60016;SDS011;45869;52.698;6.210;2022-11-06T02:46:26;11.95;;;6.88;;
60016;SDS011;45869;52.698;6.210;2022-11-06T02:49:06;12.88;;;6.80;;
60016;SDS011;45869;52.698;6.210;2022-11-06T02:51:35;11.68;;;6.70;;
60016;SDS011;45869;52.698;6.210;2022-11-06T02:54:03;8.95;;;6.68;;
60016;SDS011;45869;52.698;6.210;2022-11-06T02:56:32;10.38;;;6.50;;
60016;SDS011;45869;52.698;6.210;2022-11-06T02:59:08;10.77;;;6.28;;
60016;SDS011;45869;52.698;6.210;2022-11-06T03:01:46;15.05;;;7.07;;
60016;SDS011;45869;52.698;6.210;2022-11-06T03:04:18;12.00;;;6.35;;
60016;SDS011;45869;52.698;6.210;2022-11-06T03:06:50;12.18;;;7.07;;
60016;SDS011;45869;52.698;6.210;2022-11-06T03:09:18;10.38;;;5.80;;
60016;SDS011;45869;52.698;6.210;2022-11-06T03:11:53;9.50;;;5.82;;
60016;SDS011;45869;52.698;6.210;2022-11-06T03:14:30;12.27;;;6.40;;
60016;SDS011;45869;52.698;6.210;2022-11-06T03:17:08;8.98;;;5.43;;
60016;SDS011;45869;52.698;6.210;2022-11-06T03:25:10;12.75;;;5.57;;
60016;SDS011;45869;52.698;6.210;2022-11-06T03:27:47;12.02;;;5.60;;
60016;SDS011;45869;52.698;6.210;2022-11-06T03:30:14;11.48;;;5.63;;
60016;SDS011;45869;52.698;6.210;2022-11-06T03:35:23;11.52;;;6.20;;
60016;SDS011;45869;52.698;6.210;2022-11-06T03:40:19;12.77;;;5.85;;
60016;SDS011;45869;52.698;6.210;2022-11-06T03:42:46;11.20;;;5.90;;
60016;SDS011;45869;52.698;6.210;2022-11-06T03:45:20;11.77;;;5.75;;
60016;SDS011;45869;52.698;6.210;2022-11-06T03:47:51;12.65;;;5.88;;
60016;SDS011;45869;52.698;6.210;2022-11-06T03:50:19;13.35;;;6.25;;
60016;SDS011;45869;52.698;6.210;2022-11-06T03:52:55;10.43;;;5.70;;
60016;SDS011;45869;52.698;6.210;2022-11-06T03:55:25;11.38;;;5.68;;
60016;SDS011;45869;52.698;6.210;2022-11-06T03:57:54;9.52;;;5.20;;
60016;SDS011;45869;52.698;6.210;2022-11-06T04:00:21;11.75;;;5.32;;
60016;SDS011;45869;52.698;6.210;2022-11-06T04:02:51;11.50;;;5.82;;
60016;SDS011;45869;52.698;6.210;2022-11-06T04:05:28;10.65;;;5.30;;
60016;SDS011;45869;52.698;6.210;2022-11-06T04:07:55;11.10;;;5.60;;
60016;SDS011;45869;52.698;6.210;2022-11-06T04:10:42;12.68;;;5.85;;
60016;SDS011;45869;52.698;6.210;2022-11-06T04:13:28;10.77;;;5.30;;
60016;SDS011;45869;52.698;6.210;2022-11-06T04:16:14;11.48;;;5.00;;
60016;SDS011;45869;52.698;6.210;2022-11-06T04:18:40;11.10;;;5.32;;
60016;SDS011;45869;52.698;6.210;2022-11-06T04:23:55;10.35;;;5.50;;
60016;SDS011;45869;52.698;6.210;2022-11-06T04:26:51;9.82;;;4.80;;
60016;SDS011;45869;52.698;6.210;2022-11-06T04:29:35;12.00;;;5.10;;
60016;SDS011;45869;52.698;6.210;2022-11-06T04:32:07;11.30;;;5.90;;
60016;SDS011;45869;52.698;6.210;2022-11-06T04:34:47;10.85;;;5.20;;
60016;SDS011;45869;52.698;6.210;2022-11-06T04:40:15;9.68;;;5.22;;
60016;SDS011;45869;52.698;6.210;2022-11-06T04:42:41;14.88;;;5.40;;
60016;SDS011;45869;52.698;6.210;2022-11-06T04:45:22;11.88;;;5.22;;
60016;SDS011;45869;52.698;6.210;2022-11-06T04:47:49;10.10;;;4.85;;
60016;SDS011;45869;52.698;6.210;2022-11-06T04:50:22;11.73;;;5.13;;
60016;SDS011;45869;52.698;6.210;2022-11-06T04:52:50;11.38;;;4.30;;
60016;SDS011;45869;52.698;6.210;2022-11-06T04:55:16;8.93;;;4.32;;
60016;SDS011;45869;52.698;6.210;2022-11-06T04:57:42;10.85;;;4.63;;
60016;SDS011;45869;52.698;6.210;2022-11-06T05:00:12;7.90;;;4.00;;
60016;SDS011;45869;52.698;6.210;2022-11-06T05:02:38;10.88;;;4.15;;
60016;SDS011;45869;52.698;6.210;2022-11-06T05:05:10;10.38;;;4.82;;
60016;SDS011;45869;52.698;6.210;2022-11-06T05:07:36;8.30;;;4.35;;
60016;SDS011;45869;52.698;6.210;2022-11-06T05:10:03;10.02;;;4.32;;
60016;SDS011;45869;52.698;6.210;2022-11-06T05:12:29;7.68;;;3.80;;
60016;SDS011;45869;52.698;6.210;2022-11-06T05:14:55;7.70;;;4.43;;
60016;SDS011;45869;52.698;6.210;2022-11-06T05:17:21;11.80;;;4.47;;
60016;SDS011;45869;52.698;6.210;2022-11-06T05:19:47;8.98;;;4.13;;
60016;SDS011;45869;52.698;6.210;2022-11-06T05:22:13;7.72;;;3.83;;
60016;SDS011;45869;52.698;6.210;2022-11-06T05:24:57;8.98;;;3.90;;
60016;SDS011;45869;52.698;6.210;2022-11-06T05:27:23;9.10;;;4.25;;
60016;SDS011;45869;52.698;6.210;2022-11-06T05:29:49;7.45;;;3.58;;
60016;SDS011;45869;52.698;6.210;2022-11-06T05:32:15;9.82;;;4.30;;
60016;SDS011;45869;52.698;6.210;2022-11-06T05:34:41;11.35;;;3.60;;
60016;SDS011;45869;52.698;6.210;2022-11-06T05:37:09;12.07;;;4.07;;
60016;SDS011;45869;52.698;6.210;2022-11-06T05:39:35;9.68;;;4.05;;
60016;SDS011;45869;52.698;6.210;2022-11-06T05:42:01;10.43;;;3.72;;
60016;SDS011;45869;52.698;6.210;2022-11-06T05:44:27;8.38;;;3.47;;
60016;SDS011;45869;52.698;6.210;2022-11-06T05:46:54;11.75;;;4.05;;
60016;SDS011;45869;52.698;6.210;2022-11-06T05:49:20;10.27;;;3.60;;
60016;SDS011;45869;52.698;6.210;2022-11-06T05:51:46;9.45;;;3.63;;
60016;SDS011;45869;52.698;6.210;2022-11-06T05:54:12;8.77;;;3.67;;
60016;SDS011;45869;52.698;6.210;2022-11-06T05:56:38;6.95;;;3.60;;
60016;SDS011;45869;52.698;6.210;2022-11-06T05:59:04;7.68;;;3.50;;
60016;SDS011;45869;52.698;6.210;2022-11-06T06:01:30;9.75;;;3.15;;
60016;SDS011;45869;52.698;6.210;2022-11-06T06:03:56;8.90;;;3.55;;
60016;SDS011;45869;52.698;6.210;2022-11-06T06:06:22;7.15;;;3.20;;
60016;SDS011;45869;52.698;6.210;2022-11-06T06:08:48;9.20;;;3.30;;
60016;SDS011;45869;52.698;6.210;2022-11-06T06:11:14;7.70;;;3.45;;
60016;SDS011;45869;52.698;6.210;2022-11-06T06:13:40;12.02;;;3.85;;
60016;SDS011;45869;52.698;6.210;2022-11-06T06:16:09;8.55;;;3.33;;
60016;SDS011;45869;52.698;6.210;2022-11-06T06:18:35;10.18;;;3.53;;
60016;SDS011;45869;52.698;6.210;2022-11-06T06:21:01;9.20;;;3.55;;
60016;SDS011;45869;52.698;6.210;2022-11-06T06:23:27;7.80;;;3.42;;
60016;SDS011;45869;52.698;6.210;2022-11-06T06:25:55;8.23;;;3.17;;
60016;SDS011;45869;52.698;6.210;2022-11-06T06:28:20;8.88;;;3.33;;
60016;SDS011;45869;52.698;6.210;2022-11-06T06:30:46;10.40;;;3.25;;
60016;SDS011;45869;52.698;6.210;2022-11-06T06:33:13;10.82;;;3.30;;
60016;SDS011;45869;52.698;6.210;2022-11-06T06:35:39;11.23;;;3.40;;
60016;SDS011;45869;52.698;6.210;2022-11-06T06:38:05;7.70;;;3.22;;
60016;SDS011;45869;52.698;6.210;2022-11-06T06:40:31;6.88;;;3.20;;
60016;SDS011;45869;52.698;6.210;2022-11-06T06:42:57;7.00;;;3.28;;
60016;SDS011;45869;52.698;6.210;2022-11-06T06:45:23;7.30;;;2.90;;
60016;SDS011;45869;52.698;6.210;2022-11-06T06:47:52;8.25;;;3.08;;
60016;SDS011;45869;52.698;6.210;2022-11-06T06:50:18;10.10;;;3.13;;
60016;SDS011;45869;52.698;6.210;2022-11-06T06:52:45;7.45;;;2.88;;
60016;SDS011;45869;52.698;6.210;2022-11-06T06:55:11;8.73;;;2.83;;
60016;SDS011;45869;52.698;6.210;2022-11-06T06:57:38;8.40;;;3.00;;
60016;SDS011;45869;52.698;6.210;2022-11-06T07:00:04;10.85;;;3.13;;
60016;SDS011;45869;52.698;6.210;2022-11-06T07:02:30;8.07;;;2.97;;
60016;SDS011;45869;52.698;6.210;2022-11-06T07:04:56;7.63;;;2.63;;
60016;SDS011;45869;52.698;6.210;2022-11-06T07:07:22;10.65;;;3.33;;
60016;SDS011;45869;52.698;6.210;2022-11-06T07:09:48;9.95;;;3.40;;
60016;SDS011;45869;52.698;6.210;2022-11-06T07:12:23;9.95;;;2.88;;
60016;SDS011;45869;52.698;6.210;2022-11-06T07:14:49;10.75;;;3.13;;
60016;SDS011;45869;52.698;6.210;2022-11-06T07:17:15;8.35;;;2.60;;
60016;SDS011;45869;52.698;6.210;2022-11-06T07:19:41;7.22;;;2.78;;
60016;SDS011;45869;52.698;6.210;2022-11-06T07:22:07;7.38;;;2.75;;
60016;SDS011;45869;52.698;6.210;2022-11-06T07:24:36;8.25;;;2.88;;
60016;SDS011;45869;52.698;6.210;2022-11-06T07:27:02;9.63;;;3.03;;
60016;SDS011;45869;52.698;6.210;2022-11-06T07:29:28;7.88;;;2.92;;
60016;SDS011;45869;52.698;6.210;2022-11-06T07:31:54;9.13;;;2.80;;
60016;SDS011;45869;52.698;6.210;2022-11-06T07:34:23;8.93;;;3.00;;
60016;SDS011;45869;52.698;6.210;2022-11-06T07:36:49;10.98;;;2.83;;
60016;SDS011;45869;52.698;6.210;2022-11-06T07:39:15;7.82;;;2.80;;
60016;SDS011;45869;52.698;6.210;2022-11-06T07:41:41;8.98;;;2.75;;
60016;SDS011;45869;52.698;6.210;2022-11-06T07:44:07;9.38;;;3.15;;
60016;SDS011;45869;52.698;6.210;2022-11-06T07:46:33;8.57;;;2.80;;
60016;SDS011;45869;52.698;6.210;2022-11-06T07:49:02;9.38;;;2.67;;
60016;SDS011;45869;52.698;6.210;2022-11-06T07:51:28;7.65;;;2.70;;
60016;SDS011;45869;52.698;6.210;2022-11-06T07:53:54;10.40;;;3.28;;
60016;SDS011;45869;52.698;6.210;2022-11-06T07:56:20;7.55;;;2.85;;
60016;SDS011;45869;52.698;6.210;2022-11-06T07:58:49;6.93;;;2.85;;
60016;SDS011;45869;52.698;6.210;2022-11-06T08:01:15;11.35;;;2.85;;
60016;SDS011;45869;52.698;6.210;2022-11-06T08:03:41;5.63;;;2.60;;
60016;SDS011;45869;52.698;6.210;2022-11-06T08:06:08;7.80;;;2.53;;
60016;SDS011;45869;52.698;6.210;2022-11-06T08:08:34;8.20;;;2.70;;
60016;SDS011;45869;52.698;6.210;2022-11-06T08:11:04;8.90;;;2.92;;
60016;SDS011;45869;52.698;6.210;2022-11-06T08:13:30;9.30;;;2.70;;
60016;SDS011;45869;52.698;6.210;2022-11-06T08:15:58;8.13;;;2.80;;
60016;SDS011;45869;52.698;6.210;2022-11-06T08:18:24;5.63;;;2.65;;
60016;SDS011;45869;52.698;6.210;2022-11-06T08:20:51;7.15;;;2.97;;
60016;SDS011;45869;52.698;6.210;2022-11-06T08:23:20;9.43;;;2.63;;
60016;SDS011;45869;52.698;6.210;2022-11-06T08:25:52;5.97;;;2.25;;
60016;SDS011;45869;52.698;6.210;2022-11-06T08:28:18;6.82;;;2.55;;
60016;SDS011;45869;52.698;6.210;2022-11-06T08:30:44;8.88;;;2.60;;
60016;SDS011;45869;52.698;6.210;2022-11-06T08:33:10;7.75;;;2.92;;
60016;SDS011;45869;52.698;6.210;2022-11-06T08:35:36;6.43;;;2.60;;
60016;SDS011;45869;52.698;6.210;2022-11-06T08:38:02;8.27;;;2.60;;
60016;SDS011;45869;52.698;6.210;2022-11-06T08:40:29;5.60;;;2.42;;
60016;SDS011;45869;52.698;6.210;2022-11-06T08:43:01;8.40;;;2.42;;
60016;SDS011;45869;52.698;6.210;2022-11-06T08:45:28;8.93;;;2.72;;
60016;SDS011;45869;52.698;6.210;2022-11-06T08:48:00;6.60;;;2.42;;
60016;SDS011;45869;52.698;6.210;2022-11-06T08:50:26;7.35;;;2.45;;
60016;SDS011;45869;52.698;6.210;2022-11-06T08:52:55;8.90;;;2.38;;
60016;SDS011;45869;52.698;6.210;2022-11-06T08:55:21;7.95;;;3.00;;
60016;SDS011;45869;52.698;6.210;2022-11-06T08:57:50;5.25;;;2.10;;
60016;SDS011;45869;52.698;6.210;2022-11-06T09:00:18;8.80;;;2.38;;
60016;SDS011;45869;52.698;6.210;2022-11-06T09:02:44;8.05;;;2.50;;
60016;SDS011;45869;52.698;6.210;2022-11-06T09:05:10;8.15;;;2.50;;
60016;SDS011;45869;52.698;6.210;2022-11-06T09:07:36;11.68;;;2.70;;
60016;SDS011;45869;52.698;6.210;2022-11-06T09:10:02;9.23;;;2.83;;
60016;SDS011;45869;52.698;6.210;2022-11-06T09:12:28;9.45;;;2.42;;
60016;SDS011;45869;52.698;6.210;2022-11-06T09:14:54;8.43;;;2.35;;
60016;SDS011;45869;52.698;6.210;2022-11-06T09:17:20;5.82;;;2.25;;
60016;SDS011;45869;52.698;6.210;2022-11-06T09:22:37;6.43;;;2.28;;
60016;SDS011;45869;52.698;6.210;2022-11-06T09:25:03;6.13;;;2.40;;
60016;SDS011;45869;52.698;6.210;2022-11-06T09:27:30;8.35;;;2.45;;
60016;SDS011;45869;52.698;6.210;2022-11-06T09:29:56;7.68;;;2.17;;
60016;SDS011;45869;52.698;6.210;2022-11-06T09:32:24;10.38;;;2.90;;
60016;SDS011;45869;52.698;6.210;2022-11-06T09:34:50;6.93;;;2.35;;
60016;SDS011;45869;52.698;6.210;2022-11-06T09:37:19;6.80;;;2.10;;
60016;SDS011;45869;52.698;6.210;2022-11-06T09:39:48;7.85;;;2.15;;
60016;SDS011;45869;52.698;6.210;2022-11-06T09:47:25;10.00;;;2.05;;
60016;SDS011;45869;52.698;6.210;2022-11-06T09:49:53;6.45;;;2.20;;
60016;SDS011;45869;52.698;6.210;2022-11-06T09:54:53;8.77;;;2.28;;
60016;SDS011;45869;52.698;6.210;2022-11-06T09:57:22;5.00;;;1.80;;
60016;SDS011;45869;52.698;6.210;2022-11-06T09:59:50;8.82;;;2.42;;
60016;SDS011;45869;52.698;6.210;2022-11-06T10:02:31;5.30;;;1.83;;
60016;SDS011;45869;52.698;6.210;2022-11-06T10:05:04;7.43;;;2.00;;
60016;SDS011;45869;52.698;6.210;2022-11-06T10:07:33;6.93;;;2.17;;
60016;SDS011;45869;52.698;6.210;2022-11-06T10:10:00;3.67;;;1.75;;
60016;SDS011;45869;52.698;6.210;2022-11-06T10:14:57;6.65;;;2.00;;
60016;SDS011;45869;52.698;6.210;2022-11-06T10:17:44;8.75;;;2.40;;
60016;SDS011;45869;52.698;6.210;2022-11-06T10:20:18;6.88;;;1.90;;
60016;SDS011;45869;52.698;6.210;2022-11-06T10:22:51;6.03;;;1.83;;
60016;SDS011;45869;52.698;6.210;2022-11-06T10:25:21;7.00;;;1.80;;
60016;SDS011;45869;52.698;6.210;2022-11-06T10:30:24;5.10;;;1.67;;
60016;SDS011;45869;52.698;6.210;2022-11-06T10:35:39;7.25;;;2.05;;
60016;SDS011;45869;52.698;6.210;2022-11-06T10:38:11;5.97;;;1.70;;
60016;SDS011;45869;52.698;6.210;2022-11-06T10:45:32;5.32;;;2.10;;
60016;SDS011;45869;52.698;6.210;2022-11-06T10:48:01;5.75;;;1.65;;
60016;SDS011;45869;52.698;6.210;2022-11-06T10:50:37;9.60;;;1.88;;
60016;SDS011;45869;52.698;6.210;2022-11-06T10:53:19;6.20;;;1.83;;
60016;SDS011;45869;52.698;6.210;2022-11-06T10:55:55;4.97;;;1.40;;
60016;SDS011;45869;52.698;6.210;2022-11-06T10:58:29;6.30;;;1.52;;
60016;SDS011;45869;52.698;6.210;2022-11-06T11:01:02;5.90;;;1.80;;
60016;SDS011;45869;52.698;6.210;2022-11-06T11:03:39;6.50;;;1.67;;
60016;SDS011;45869;52.698;6.210;2022-11-06T11:06:06;5.25;;;1.42;;
60016;SDS011;45869;52.698;6.210;2022-11-06T11:08:34;7.68;;;1.70;;
60016;SDS011;45869;52.698;6.210;2022-11-06T11:11:01;6.82;;;1.73;;
60016;SDS011;45869;52.698;6.210;2022-11-06T11:13:27;5.90;;;1.83;;
60016;SDS011;45869;52.698;6.210;2022-11-06T11:15:54;5.13;;;1.75;;
60016;SDS011;45869;52.698;6.210;2022-11-06T11:18:26;7.40;;;1.70;;
60016;SDS011;45869;52.698;6.210;2022-11-06T11:23:30;8.02;;;1.58;;
60016;SDS011;45869;52.698;6.210;2022-11-06T11:26:16;5.38;;;1.60;;
60016;SDS011;45869;52.698;6.210;2022-11-06T11:28:42;3.83;;;1.30;;
60016;SDS011;45869;52.698;6.210;2022-11-06T11:31:09;4.80;;;1.70;;
60016;SDS011;45869;52.698;6.210;2022-11-06T11:33:36;7.45;;;1.80;;
60016;SDS011;45869;52.698;6.210;2022-11-06T11:36:07;5.63;;;1.60;;
60016;SDS011;45869;52.698;6.210;2022-11-06T11:38:38;4.57;;;1.58;;
60016;SDS011;45869;52.698;6.210;2022-11-06T11:43:54;8.52;;;1.52;;
60016;SDS011;45869;52.698;6.210;2022-11-06T11:46:21;7.00;;;1.75;;
60016;SDS011;45869;52.698;6.210;2022-11-06T11:48:48;8.40;;;1.48;;
60016;SDS011;45869;52.698;6.210;2022-11-06T11:51:17;6.50;;;1.60;;
60016;SDS011;45869;52.698;6.210;2022-11-06T11:56:20;8.45;;;1.73;;
60016;SDS011;45869;52.698;6.210;2022-11-06T11:58:57;6.90;;;1.73;;
60016;SDS011;45869;52.698;6.210;2022-11-06T12:01:37;5.75;;;1.50;;
60016;SDS011;45869;52.698;6.210;2022-11-06T12:04:15;6.72;;;1.77;;
60016;SDS011;45869;52.698;6.210;2022-11-06T12:06:57;9.43;;;2.05;;
60016;SDS011;45869;52.698;6.210;2022-11-06T12:09:23;5.95;;;1.48;;
60016;SDS011;45869;52.698;6.210;2022-11-06T12:11:53;5.15;;;1.42;;
60016;SDS011;45869;52.698;6.210;2022-11-06T12:16:49;4.38;;;1.70;;
60016;SDS011;45869;52.698;6.210;2022-11-06T12:19:16;6.10;;;1.80;;
60016;SDS011;45869;52.698;6.210;2022-11-06T12:21:43;5.43;;;1.70;;
60016;SDS011;45869;52.698;6.210;2022-11-06T12:24:29;7.60;;;1.92;;
60016;SDS011;45869;52.698;6.210;2022-11-06T12:27:03;5.15;;;1.45;;
60016;SDS011;45869;52.698;6.210;2022-11-06T12:29:40;7.13;;;1.45;;
60016;SDS011;45869;52.698;6.210;2022-11-06T12:34:37;5.68;;;1.60;;
60016;SDS011;45869;52.698;6.210;2022-11-06T12:39:34;6.68;;;1.30;;
60016;SDS011;45869;52.698;6.210;2022-11-06T12:42:02;5.47;;;1.63;;
60016;SDS011;45869;52.698;6.210;2022-11-06T12:44:29;5.05;;;1.30;;
60016;SDS011;45869;52.698;6.210;2022-11-06T12:49:51;4.90;;;1.30;;
60016;SDS011;45869;52.698;6.210;2022-11-06T12:52:26;4.43;;;1.25;;
60016;SDS011;45869;52.698;6.210;2022-11-06T13:00:19;6.78;;;1.52;;
60016;SDS011;45869;52.698;6.210;2022-11-06T13:10:47;4.43;;;1.17;;
60016;SDS011;45869;52.698;6.210;2022-11-06T13:23:52;5.63;;;1.70;;
60016;SDS011;45869;52.698;6.210;2022-11-06T13:26:28;5.68;;;1.40;;
60016;SDS011;45869;52.698;6.210;2022-11-06T13:28:58;6.45;;;1.33;;
60016;SDS011;45869;52.698;6.210;2022-11-06T13:31:33;7.22;;;1.30;;
60016;SDS011;45869;52.698;6.210;2022-11-06T13:34:01;4.88;;;1.35;;
60016;SDS011;45869;52.698;6.210;2022-11-06T13:36:28;6.32;;;1.38;;
60016;SDS011;45869;52.698;6.210;2022-11-06T13:38:57;5.43;;;1.15;;
60016;SDS011;45869;52.698;6.210;2022-11-06T13:41:25;6.43;;;1.10;;
60016;SDS011;45869;52.698;6.210;2022-11-06T13:43:57;6.25;;;1.50;;
60016;SDS011;45869;52.698;6.210;2022-11-06T13:49:07;4.18;;;1.20;;
60016;SDS011;45869;52.698;6.210;2022-11-06T13:59:20;5.43;;;1.30;;
60016;SDS011;45869;52.698;6.210;2022-11-06T14:06:53;4.32;;;1.00;;
60016;SDS011;45869;52.698;6.210;2022-11-06T14:09:21;6.20;;;3.00;;
60016;SDS011;45869;52.698;6.210;2022-11-06T14:11:59;3.83;;;1.20;;
60016;SDS011;45869;52.698;6.210;2022-11-06T14:14:29;5.07;;;1.35;;
60016;SDS011;45869;52.698;6.210;2022-11-06T14:17:17;5.70;;;1.45;;
60016;SDS011;45869;52.698;6.210;2022-11-06T14:22:24;5.82;;;1.20;;
60016;SDS011;45869;52.698;6.210;2022-11-06T14:24:51;4.57;;;1.23;;
60016;SDS011;45869;52.698;6.210;2022-11-06T14:30:03;6.63;;;1.60;;
60016;SDS011;45869;52.698;6.210;2022-11-06T14:37:45;4.78;;;1.20;;
60016;SDS011;45869;52.698;6.210;2022-11-06T14:40:29;8.77;;;1.45;;
60016;SDS011;45869;52.698;6.210;2022-11-06T14:42:56;6.93;;;1.38;;
60016;SDS011;45869;52.698;6.210;2022-11-06T14:45:22;5.55;;;1.17;;
60016;SDS011;45869;52.698;6.210;2022-11-06T14:47:54;6.43;;;1.40;;
60016;SDS011;45869;52.698;6.210;2022-11-06T14:52:50;4.07;;;1.23;;
60016;SDS011;45869;52.698;6.210;2022-11-06T14:57:49;8.65;;;2.35;;
60016;SDS011;45869;52.698;6.210;2022-11-06T15:00:40;5.57;;;1.85;;
60016;SDS011;45869;52.698;6.210;2022-11-06T15:05:46;5.85;;;1.80;;
60016;SDS011;45869;52.698;6.210;2022-11-06T15:08:24;5.20;;;1.52;;
60016;SDS011;45869;52.698;6.210;2022-11-06T15:10:59;6.45;;;1.70;;
60016;SDS011;45869;52.698;6.210;2022-11-06T15:13:25;7.57;;;1.90;;
60016;SDS011;45869;52.698;6.210;2022-11-06T15:15:56;5.88;;;1.98;;
60016;SDS011;45869;52.698;6.210;2022-11-06T15:18:22;8.10;;;1.90;;
60016;SDS011;45869;52.698;6.210;2022-11-06T15:20:53;4.85;;;1.90;;
60016;SDS011;45869;52.698;6.210;2022-11-06T15:23:24;4.93;;;1.80;;
60016;SDS011;45869;52.698;6.210;2022-11-06T15:26:02;8.70;;;2.30;;
60016;SDS011;45869;52.698;6.210;2022-11-06T15:28:36;7.32;;;2.10;;
60016;SDS011;45869;52.698;6.210;2022-11-06T15:31:03;5.22;;;1.80;;
60016;SDS011;45869;52.698;6.210;2022-11-06T15:33:34;8.02;;;1.60;;
60016;SDS011;45869;52.698;6.210;2022-11-06T15:36:04;3.95;;;1.65;;
60016;SDS011;45869;52.698;6.210;2022-11-06T15:38:39;5.78;;;1.73;;
60016;SDS011;45869;52.698;6.210;2022-11-06T15:41:06;6.47;;;1.65;;
60016;SDS011;45869;52.698;6.210;2022-11-06T15:43:33;4.95;;;1.80;;
60016;SDS011;45869;52.698;6.210;2022-11-06T15:46:03;4.78;;;1.50;;
60016;SDS011;45869;52.698;6.210;2022-11-06T15:48:32;6.97;;;1.42;;
60016;SDS011;45869;52.698;6.210;2022-11-06T15:50:58;6.80;;;1.83;;
60016;SDS011;45869;52.698;6.210;2022-11-06T15:53:25;5.13;;;1.00;;
60016;SDS011;45869;52.698;6.210;2022-11-06T15:55:53;4.57;;;0.80;;
60016;SDS011;45869;52.698;6.210;2022-11-06T15:58:25;3.92;;;1.08;;
60016;SDS011;45869;52.698;6.210;2022-11-06T16:00:51;3.97;;;1.27;;
60016;SDS011;45869;52.698;6.210;2022-11-06T16:03:19;6.78;;;1.67;;
60016;SDS011;45869;52.698;6.210;2022-11-06T16:05:45;4.57;;;1.38;;
60016;SDS011;45869;52.698;6.210;2022-11-06T16:08:18;5.85;;;3.03;;
60016;SDS011;45869;52.698;6.210;2022-11-06T16:10:45;6.25;;;2.00;;
60016;SDS011;45869;52.698;6.210;2022-11-06T16:13:15;3.97;;;1.55;;
60016;SDS011;45869;52.698;6.210;2022-11-06T16:15:50;5.00;;;1.38;;
60016;SDS011;45869;52.698;6.210;2022-11-06T16:18:20;5.20;;;1.40;;
60016;SDS011;45869;52.698;6.210;2022-11-06T16:20:48;5.15;;;1.30;;
60016;SDS011;45869;52.698;6.210;2022-11-06T16:23:17;5.53;;;1.60;;
60016;SDS011;45869;52.698;6.210;2022-11-06T16:25:45;4.47;;;1.27;;
60016;SDS011;45869;52.698;6.210;2022-11-06T16:28:16;5.22;;;1.48;;
60016;SDS011;45869;52.698;6.210;2022-11-06T16:30:43;4.00;;;1.20;;
60016;SDS011;45869;52.698;6.210;2022-11-06T16:33:12;4.43;;;1.00;;
60016;SDS011;45869;52.698;6.210;2022-11-06T16:35:43;3.30;;;1.10;;
60016;SDS011;45869;52.698;6.210;2022-11-06T16:38:26;7.95;;;1.73;;
60016;SDS011;45869;52.698;6.210;2022-11-06T16:40:55;3.20;;;0.90;;
60016;SDS011;45869;52.698;6.210;2022-11-06T16:43:21;4.63;;;1.23;;
60016;SDS011;45869;52.698;6.210;2022-11-06T16:45:55;5.40;;;1.30;;
60016;SDS011;45869;52.698;6.210;2022-11-06T16:48:28;4.32;;;1.27;;
60016;SDS011;45869;52.698;6.210;2022-11-06T16:50:56;4.20;;;0.95;;
60016;SDS011;45869;52.698;6.210;2022-11-06T16:53:25;4.32;;;1.40;;
60016;SDS011;45869;52.698;6.210;2022-11-06T16:55:58;4.63;;;1.10;;
60016;SDS011;45869;52.698;6.210;2022-11-06T16:58:25;3.10;;;1.10;;
60016;SDS011;45869;52.698;6.210;2022-11-06T17:01:10;4.53;;;1.20;;
60016;SDS011;45869;52.698;6.210;2022-11-06T17:06:02;2.72;;;1.10;;
60016;SDS011;45869;52.698;6.210;2022-11-06T17:13:39;3.97;;;1.27;;